createdAt,value
2022-11-02T00:10:11.085Z,11.30
2022-11-02T00:40:20.001Z,11.00
2022-11-02T01:10:32.518Z,10.80
2022-11-02T01:40:43.080Z,10.60
2022-11-02T02:10:51.597Z,10.60
2022-11-02T02:41:07.274Z,11.10
2022-11-02T03:11:19.372Z,11.20
2022-11-02T03:41:33.630Z,11.00
2022-11-02T04:11:56.651Z,10.70
2022-11-02T04:42:05.857Z,10.40
2022-11-02T05:12:32.545Z,10.30
2022-11-02T05:42:42.466Z,10.00
2022-11-02T06:12:57.765Z,10.00
2022-11-02T06:43:21.897Z,10.10
2022-11-02T07:13:30.904Z,13.30
2022-11-02T07:43:44.063Z,21.50
2022-11-02T08:14:19.094Z,29.10
2022-11-02T08:44:28.382Z,30.30
2022-11-02T09:14:41.281Z,32.30
2022-11-02T09:44:59.879Z,33.30
2022-11-02T10:15:14.142Z,31.80
2022-11-02T10:45:40.833Z,31.00
2022-11-02T11:15:56.925Z,22.10
2022-11-02T11:46:07.927Z,20.60
2022-11-02T12:16:28.777Z,19.80
2022-11-02T12:46:48.876Z,18.50
2022-11-02T13:17:04.797Z,17.60
2022-11-02T15:20:30.373Z,14.70
2022-11-02T15:50:50.377Z,13.90
2022-11-02T16:21:06.333Z,13.30
2022-11-02T16:51:21.674Z,12.80
2022-11-02T17:21:39.294Z,12.70
2022-11-02T17:51:48.926Z,13.20
2022-11-02T18:22:00.077Z,12.50
2022-11-02T18:52:21.632Z,11.90
2022-11-02T19:22:31.212Z,11.70
2022-11-02T19:52:43.057Z,12.00
2022-11-02T20:22:58.003Z,12.00
2022-11-02T20:53:09.314Z,11.80
2022-11-02T21:23:18.425Z,11.20
2022-11-02T21:53:27.067Z,10.70
2022-11-02T22:23:38.334Z,10.40
2022-11-02T22:53:57.445Z,10.30
2022-11-02T23:24:19.711Z,10.40
2022-11-02T23:54:41.989Z,10.00
